sensor_id;sensor_type;location;lat;lon;timestamp;temperature;humidity
56044;DHT22;41912;51.022;3.664;2023-08-12T00:01:32;22.80;99.90
56044;DHT22;41912;51.022;3.664;2023-08-12T00:03:57;22.70;99.90
56044;DHT22;41912;51.022;3.664;2023-08-12T00:06:23;22.70;99.90
56044;DHT22;41912;51.022;3.664;2023-08-12T00:08:48;22.70;99.90
56044;DHT22;41912;51.022;3.664;2023-08-12T00:11:14;22.70;99.90
56044;DHT22;41912;51.022;3.664;2023-08-12T00:13:40;22.70;99.90
56044;DHT22;41912;51.022;3.664;2023-08-12T00:16:05;22.70;99.90
56044;DHT22;41912;51.022;3.664;2023-08-12T00:18:31;22.60;99.90
56044;DHT22;41912;51.022;3.664;2023-08-12T00:21:07;22.60;99.90
56044;DHT22;41912;51.022;3.664;2023-08-12T00:23:37;22.60;99.90
56044;DHT22;41912;51.022;3.664;2023-08-12T00:26:03;22.60;99.90
56044;DHT22;41912;51.022;3.664;2023-08-12T00:28:29;22.60;99.90
56044;DHT22;41912;51.022;3.664;2023-08-12T00:30:54;22.60;99.90
56044;DHT22;41912;51.022;3.664;2023-08-12T00:33:20;22.70;99.90
56044;DHT22;41912;51.022;3.664;2023-08-12T00:35:46;22.60;99.90
56044;DHT22;41912;51.022;3.664;2023-08-12T00:38:11;22.60;99.90
56044;DHT22;41912;51.022;3.664;2023-08-12T00:40:37;22.50;99.90
56044;DHT22;41912;51.022;3.664;2023-08-12T00:43:03;22.50;99.90
56044;DHT22;41912;51.022;3.664;2023-08-12T00:45:29;22.60;99.90
56044;DHT22;41912;51.022;3.664;2023-08-12T00:47:55;22.50;99.90
56044;DHT22;41912;51.022;3.664;2023-08-12T00:50:21;22.50;99.90
56044;DHT22;41912;51.022;3.664;2023-08-12T00:52:48;22.50;99.90
56044;DHT22;41912;51.022;3.664;2023-08-12T00:55:14;22.50;99.90
56044;DHT22;41912;51.022;3.664;2023-08-12T00:57:40;22.50;99.90
56044;DHT22;41912;51.022;3.664;2023-08-12T01:00:06;22.50;99.90
56044;DHT22;41912;51.022;3.664;2023-08-12T01:02:33;22.50;99.90
56044;DHT22;41912;51.022;3.664;2023-08-12T01:04:59;22.50;99.90
56044;DHT22;41912;51.022;3.664;2023-08-12T01:07:24;22.50;99.90
56044;DHT22;41912;51.022;3.664;2023-08-12T01:09:50;22.50;99.90
56044;DHT22;41912;51.022;3.664;2023-08-12T01:15:13;22.40;99.90
56044;DHT22;41912;51.022;3.664;2023-08-12T01:17:41;22.40;99.90
56044;DHT22;41912;51.022;3.664;2023-08-12T01:20:08;22.40;99.90
56044;DHT22;41912;51.022;3.664;2023-08-12T01:22:37;22.40;99.90
56044;DHT22;41912;51.022;3.664;2023-08-12T01:25:05;22.40;99.90
56044;DHT22;41912;51.022;3.664;2023-08-12T01:27:31;22.40;99.90
56044;DHT22;41912;51.022;3.664;2023-08-12T01:29:57;22.20;99.90
56044;DHT22;41912;51.022;3.664;2023-08-12T01:35:09;22.40;99.90
56044;DHT22;41912;51.022;3.664;2023-08-12T01:37:38;22.40;99.90
56044;DHT22;41912;51.022;3.664;2023-08-12T01:40:05;22.40;99.90
56044;DHT22;41912;51.022;3.664;2023-08-12T01:42:35;22.40;99.90
56044;DHT22;41912;51.022;3.664;2023-08-12T01:45:02;22.30;99.90
56044;DHT22;41912;51.022;3.664;2023-08-12T01:47:28;22.30;99.90
56044;DHT22;41912;51.022;3.664;2023-08-12T01:49:54;22.30;99.90
56044;DHT22;41912;51.022;3.664;2023-08-12T01:52:20;22.30;99.90
56044;DHT22;41912;51.022;3.664;2023-08-12T01:54:46;22.30;99.90
56044;DHT22;41912;51.022;3.664;2023-08-12T01:57:11;22.30;99.90
56044;DHT22;41912;51.022;3.664;2023-08-12T01:59:38;22.30;99.90
56044;DHT22;41912;51.022;3.664;2023-08-12T02:02:04;22.30;99.90
56044;DHT22;41912;51.022;3.664;2023-08-12T02:04:30;22.20;99.90
56044;DHT22;41912;51.022;3.664;2023-08-12T02:06:56;22.20;99.90
56044;DHT22;41912;51.022;3.664;2023-08-12T02:09:22;22.20;99.90
56044;DHT22;41912;51.022;3.664;2023-08-12T02:11:48;22.30;99.90
56044;DHT22;41912;51.022;3.664;2023-08-12T02:14:14;22.20;99.90
56044;DHT22;41912;51.022;3.664;2023-08-12T02:16:40;22.20;99.90
56044;DHT22;41912;51.022;3.664;2023-08-12T02:19:05;22.20;99.90
56044;DHT22;41912;51.022;3.664;2023-08-12T02:21:31;22.20;99.90
56044;DHT22;41912;51.022;3.664;2023-08-12T02:23:56;22.20;99.90
56044;DHT22;41912;51.022;3.664;2023-08-12T02:26:22;22.10;99.90
56044;DHT22;41912;51.022;3.664;2023-08-12T02:28:48;22.20;99.90
56044;DHT22;41912;51.022;3.664;2023-08-12T02:31:14;22.10;99.90
56044;DHT22;41912;51.022;3.664;2023-08-12T02:33:40;22.20;99.90
56044;DHT22;41912;51.022;3.664;2023-08-12T02:36:06;22.10;99.90
56044;DHT22;41912;51.022;3.664;2023-08-12T02:38:31;22.20;99.90
56044;DHT22;41912;51.022;3.664;2023-08-12T02:40:57;22.10;99.90
56044;DHT22;41912;51.022;3.664;2023-08-12T02:43:23;22.20;99.90
56044;DHT22;41912;51.022;3.664;2023-08-12T02:45:48;22.10;99.90
56044;DHT22;41912;51.022;3.664;2023-08-12T02:48:14;22.10;99.90
56044;DHT22;41912;51.022;3.664;2023-08-12T02:50:39;22.10;99.90
56044;DHT22;41912;51.022;3.664;2023-08-12T02:53:06;22.10;99.90
56044;DHT22;41912;51.022;3.664;2023-08-12T02:55:32;22.10;99.90
56044;DHT22;41912;51.022;3.664;2023-08-12T02:57:58;22.10;99.90
56044;DHT22;41912;51.022;3.664;2023-08-12T03:00:24;22.10;99.90
56044;DHT22;41912;51.022;3.664;2023-08-12T03:02:53;22.10;99.90
56044;DHT22;41912;51.022;3.664;2023-08-12T03:05:18;22.10;99.90
56044;DHT22;41912;51.022;3.664;2023-08-12T03:07:44;22.10;99.90
56044;DHT22;41912;51.022;3.664;2023-08-12T03:10:10;22.10;99.90
56044;DHT22;41912;51.022;3.664;2023-08-12T03:12:36;22.10;99.90
56044;DHT22;41912;51.022;3.664;2023-08-12T03:15:02;22.10;99.90
56044;DHT22;41912;51.022;3.664;2023-08-12T03:17:28;22.30;99.90
56044;DHT22;41912;51.022;3.664;2023-08-12T03:19:54;22.10;99.90
56044;DHT22;41912;51.022;3.664;2023-08-12T03:22:20;22.10;99.90
56044;DHT22;41912;51.022;3.664;2023-08-12T03:24:47;22.10;99.90
56044;DHT22;41912;51.022;3.664;2023-08-12T03:27:13;22.10;99.90
56044;DHT22;41912;51.022;3.664;2023-08-12T03:29:38;22.10;99.90
56044;DHT22;41912;51.022;3.664;2023-08-12T03:32:04;22.10;99.90
56044;DHT22;41912;51.022;3.664;2023-08-12T03:34:30;22.10;99.90
56044;DHT22;41912;51.022;3.664;2023-08-12T03:36:55;22.10;99.90
56044;DHT22;41912;51.022;3.664;2023-08-12T03:39:21;22.10;99.90
56044;DHT22;41912;51.022;3.664;2023-08-12T03:41:48;22.10;99.90
56044;DHT22;41912;51.022;3.664;2023-08-12T03:44:15;22.10;99.90
56044;DHT22;41912;51.022;3.664;2023-08-12T03:46:41;22.10;99.90
56044;DHT22;41912;51.022;3.664;2023-08-12T03:49:07;22.10;99.90
56044;DHT22;41912;51.022;3.664;2023-08-12T03:51:33;22.10;99.90
56044;DHT22;41912;51.022;3.664;2023-08-12T03:53:59;22.10;99.90
56044;DHT22;41912;51.022;3.664;2023-08-12T03:56:24;22.00;99.90
56044;DHT22;41912;51.022;3.664;2023-08-12T03:58:51;22.00;99.90
56044;DHT22;41912;51.022;3.664;2023-08-12T04:01:17;22.00;99.90
56044;DHT22;41912;51.022;3.664;2023-08-12T04:03:42;22.00;99.90
56044;DHT22;41912;51.022;3.664;2023-08-12T04:06:08;22.00;99.90
56044;DHT22;41912;51.022;3.664;2023-08-12T04:08:34;22.00;99.90
56044;DHT22;41912;51.022;3.664;2023-08-12T04:10:59;22.00;99.90
56044;DHT22;41912;51.022;3.664;2023-08-12T04:13:25;22.00;99.90
56044;DHT22;41912;51.022;3.664;2023-08-12T04:15:51;22.00;99.90
56044;DHT22;41912;51.022;3.664;2023-08-12T04:18:19;22.00;99.90
56044;DHT22;41912;51.022;3.664;2023-08-12T04:20:46;22.00;99.90
56044;DHT22;41912;51.022;3.664;2023-08-12T04:23:12;22.00;99.90
56044;DHT22;41912;51.022;3.664;2023-08-12T04:25:38;22.00;99.90
56044;DHT22;41912;51.022;3.664;2023-08-12T04:28:04;22.00;99.90
56044;DHT22;41912;51.022;3.664;2023-08-12T04:30:29;21.90;99.90
56044;DHT22;41912;51.022;3.664;2023-08-12T04:32:55;22.00;99.90
56044;DHT22;41912;51.022;3.664;2023-08-12T04:35:21;21.90;99.90
56044;DHT22;41912;51.022;3.664;2023-08-12T04:37:46;21.90;99.90
56044;DHT22;41912;51.022;3.664;2023-08-12T04:40:12;21.90;99.90
56044;DHT22;41912;51.022;3.664;2023-08-12T04:42:38;21.90;99.90
56044;DHT22;41912;51.022;3.664;2023-08-12T04:45:04;21.90;99.90
56044;DHT22;41912;51.022;3.664;2023-08-12T04:47:29;21.80;99.90
56044;DHT22;41912;51.022;3.664;2023-08-12T04:49:55;21.80;99.90
56044;DHT22;41912;51.022;3.664;2023-08-12T04:52:20;21.80;99.90
56044;DHT22;41912;51.022;3.664;2023-08-12T04:54:46;21.80;99.90
56044;DHT22;41912;51.022;3.664;2023-08-12T04:57:12;21.90;99.90
56044;DHT22;41912;51.022;3.664;2023-08-12T04:59:37;21.80;99.90
56044;DHT22;41912;51.022;3.664;2023-08-12T05:02:03;21.80;99.90
56044;DHT22;41912;51.022;3.664;2023-08-12T05:04:29;21.80;99.90
56044;DHT22;41912;51.022;3.664;2023-08-12T05:06:54;21.80;99.90
56044;DHT22;41912;51.022;3.664;2023-08-12T05:09:20;21.80;99.90
56044;DHT22;41912;51.022;3.664;2023-08-12T05:11:45;21.80;99.90
56044;DHT22;41912;51.022;3.664;2023-08-12T05:14:11;21.80;99.90
56044;DHT22;41912;51.022;3.664;2023-08-12T05:16:37;21.80;99.90
56044;DHT22;41912;51.022;3.664;2023-08-12T05:19:03;21.80;99.90
56044;DHT22;41912;51.022;3.664;2023-08-12T05:21:28;21.80;99.90
56044;DHT22;41912;51.022;3.664;2023-08-12T05:23:54;21.80;99.90
56044;DHT22;41912;51.022;3.664;2023-08-12T05:26:20;21.70;99.90
56044;DHT22;41912;51.022;3.664;2023-08-12T05:28:46;21.70;99.90
56044;DHT22;41912;51.022;3.664;2023-08-12T05:31:12;21.70;99.90
56044;DHT22;41912;51.022;3.664;2023-08-12T05:33:37;21.70;99.90
56044;DHT22;41912;51.022;3.664;2023-08-12T05:36:03;21.60;99.90
56044;DHT22;41912;51.022;3.664;2023-08-12T05:38:29;21.60;99.90
56044;DHT22;41912;51.022;3.664;2023-08-12T05:40:54;21.50;99.90
56044;DHT22;41912;51.022;3.664;2023-08-12T05:43:20;21.40;99.90
56044;DHT22;41912;51.022;3.664;2023-08-12T05:45:46;21.40;99.90
56044;DHT22;41912;51.022;3.664;2023-08-12T05:48:13;21.30;99.90
56044;DHT22;41912;51.022;3.664;2023-08-12T05:50:38;21.20;99.90
56044;DHT22;41912;51.022;3.664;2023-08-12T05:53:04;21.20;99.90
56044;DHT22;41912;51.022;3.664;2023-08-12T05:55:29;21.20;99.90
56044;DHT22;41912;51.022;3.664;2023-08-12T05:57:55;21.10;99.90
56044;DHT22;41912;51.022;3.664;2023-08-12T06:00:21;21.00;99.90
56044;DHT22;41912;51.022;3.664;2023-08-12T06:02:46;21.00;99.90
56044;DHT22;41912;51.022;3.664;2023-08-12T06:05:12;21.00;99.90
56044;DHT22;41912;51.022;3.664;2023-08-12T06:07:37;20.90;99.90
56044;DHT22;41912;51.022;3.664;2023-08-12T06:10:04;20.90;99.90
56044;DHT22;41912;51.022;3.664;2023-08-12T06:12:29;20.90;99.90
56044;DHT22;41912;51.022;3.664;2023-08-12T06:14:55;20.80;99.90
56044;DHT22;41912;51.022;3.664;2023-08-12T06:17:20;20.70;99.90
56044;DHT22;41912;51.022;3.664;2023-08-12T06:19:46;20.70;99.90
56044;DHT22;41912;51.022;3.664;2023-08-12T06:22:12;20.70;99.90
56044;DHT22;41912;51.022;3.664;2023-08-12T06:24:37;20.70;99.90
56044;DHT22;41912;51.022;3.664;2023-08-12T06:27:03;20.60;99.90
56044;DHT22;41912;51.022;3.664;2023-08-12T06:29:28;20.60;99.90
56044;DHT22;41912;51.022;3.664;2023-08-12T06:31:54;20.50;99.90
56044;DHT22;41912;51.022;3.664;2023-08-12T06:34:20;20.50;99.90
56044;DHT22;41912;51.022;3.664;2023-08-12T06:36:46;20.50;99.90
56044;DHT22;41912;51.022;3.664;2023-08-12T06:39:12;20.50;99.90
56044;DHT22;41912;51.022;3.664;2023-08-12T06:41:37;20.40;99.90
56044;DHT22;41912;51.022;3.664;2023-08-12T06:44:03;20.40;99.90
56044;DHT22;41912;51.022;3.664;2023-08-12T06:46:29;20.40;99.90
56044;DHT22;41912;51.022;3.664;2023-08-12T06:48:58;20.40;99.90
56044;DHT22;41912;51.022;3.664;2023-08-12T06:51:23;20.40;99.90
56044;DHT22;41912;51.022;3.664;2023-08-12T06:53:49;20.40;99.90
56044;DHT22;41912;51.022;3.664;2023-08-12T06:56:14;20.40;99.90
56044;DHT22;41912;51.022;3.664;2023-08-12T06:58:40;20.40;99.90
56044;DHT22;41912;51.022;3.664;2023-08-12T07:01:06;20.40;99.90
56044;DHT22;41912;51.022;3.664;2023-08-12T07:03:31;20.30;99.90
56044;DHT22;41912;51.022;3.664;2023-08-12T07:05:58;20.40;99.90
56044;DHT22;41912;51.022;3.664;2023-08-12T07:08:23;20.40;99.90
56044;DHT22;41912;51.022;3.664;2023-08-12T07:10:49;20.40;99.90
56044;DHT22;41912;51.022;3.664;2023-08-12T07:13:15;20.40;99.90
56044;DHT22;41912;51.022;3.664;2023-08-12T07:15:40;20.40;99.90
56044;DHT22;41912;51.022;3.664;2023-08-12T07:18:06;20.40;99.90
56044;DHT22;41912;51.022;3.664;2023-08-12T07:20:31;20.40;99.90
56044;DHT22;41912;51.022;3.664;2023-08-12T07:22:57;20.40;99.90
56044;DHT22;41912;51.022;3.664;2023-08-12T07:25:23;20.40;99.90
56044;DHT22;41912;51.022;3.664;2023-08-12T07:27:48;20.40;99.90
56044;DHT22;41912;51.022;3.664;2023-08-12T07:30:14;20.50;99.90
56044;DHT22;41912;51.022;3.664;2023-08-12T07:32:39;20.50;99.90
56044;DHT22;41912;51.022;3.664;2023-08-12T07:35:05;20.50;99.90
56044;DHT22;41912;51.022;3.664;2023-08-12T07:37:32;20.50;99.90
56044;DHT22;41912;51.022;3.664;2023-08-12T07:39:57;20.50;99.90
56044;DHT22;41912;51.022;3.664;2023-08-12T07:42:23;20.60;99.90
56044;DHT22;41912;51.022;3.664;2023-08-12T07:44:49;20.60;99.90
56044;DHT22;41912;51.022;3.664;2023-08-12T07:47:14;20.60;99.90
56044;DHT22;41912;51.022;3.664;2023-08-12T07:49:41;20.70;99.90
56044;DHT22;41912;51.022;3.664;2023-08-12T07:52:06;20.70;99.90
56044;DHT22;41912;51.022;3.664;2023-08-12T07:54:32;20.70;99.90
56044;DHT22;41912;51.022;3.664;2023-08-12T07:56:58;20.80;99.90
56044;DHT22;41912;51.022;3.664;2023-08-12T07:59:23;20.80;99.90
56044;DHT22;41912;51.022;3.664;2023-08-12T08:01:49;20.90;99.90
56044;DHT22;41912;51.022;3.664;2023-08-12T08:04:14;20.90;99.90
56044;DHT22;41912;51.022;3.664;2023-08-12T08:06:40;21.00;99.90
56044;DHT22;41912;51.022;3.664;2023-08-12T08:09:06;21.10;99.90
56044;DHT22;41912;51.022;3.664;2023-08-12T08:11:31;21.10;99.90
56044;DHT22;41912;51.022;3.664;2023-08-12T08:13:58;21.20;99.90
56044;DHT22;41912;51.022;3.664;2023-08-12T08:16:24;21.20;99.90
56044;DHT22;41912;51.022;3.664;2023-08-12T08:18:50;21.20;99.90
56044;DHT22;41912;51.022;3.664;2023-08-12T08:21:15;21.20;99.90
56044;DHT22;41912;51.022;3.664;2023-08-12T08:23:42;21.20;99.90
56044;DHT22;41912;51.022;3.664;2023-08-12T08:26:08;21.30;99.90
56044;DHT22;41912;51.022;3.664;2023-08-12T08:28:34;21.30;99.90
56044;DHT22;41912;51.022;3.664;2023-08-12T08:31:00;21.30;99.90
56044;DHT22;41912;51.022;3.664;2023-08-12T08:33:26;21.30;99.90
56044;DHT22;41912;51.022;3.664;2023-08-12T08:35:52;21.30;99.90
56044;DHT22;41912;51.022;3.664;2023-08-12T08:38:17;21.30;99.90
56044;DHT22;41912;51.022;3.664;2023-08-12T08:40:43;21.30;99.90
56044;DHT22;41912;51.022;3.664;2023-08-12T08:43:09;21.40;99.90
56044;DHT22;41912;51.022;3.664;2023-08-12T08:45:36;21.50;99.90
56044;DHT22;41912;51.022;3.664;2023-08-12T08:48:03;21.60;99.90
56044;DHT22;41912;51.022;3.664;2023-08-12T08:50:30;21.70;99.90
56044;DHT22;41912;51.022;3.664;2023-08-12T08:52:56;21.70;99.90
56044;DHT22;41912;51.022;3.664;2023-08-12T08:55:22;21.70;99.90
56044;DHT22;41912;51.022;3.664;2023-08-12T08:57:49;21.70;99.90
56044;DHT22;41912;51.022;3.664;2023-08-12T09:00:19;21.90;99.90
56044;DHT22;41912;51.022;3.664;2023-08-12T09:02:49;21.80;99.90
56044;DHT22;41912;51.022;3.664;2023-08-12T09:05:16;21.80;99.90
56044;DHT22;41912;51.022;3.664;2023-08-12T09:07:43;21.80;99.90
56044;DHT22;41912;51.022;3.664;2023-08-12T09:10:11;21.90;99.90
56044;DHT22;41912;51.022;3.664;2023-08-12T09:12:37;21.90;99.90
56044;DHT22;41912;51.022;3.664;2023-08-12T09:15:03;22.00;99.90
56044;DHT22;41912;51.022;3.664;2023-08-12T09:17:30;22.00;99.90
56044;DHT22;41912;51.022;3.664;2023-08-12T09:19:57;22.00;99.90
56044;DHT22;41912;51.022;3.664;2023-08-12T09:22:25;22.10;99.90
56044;DHT22;41912;51.022;3.664;2023-08-12T09:24:56;22.10;99.90
56044;DHT22;41912;51.022;3.664;2023-08-12T09:27:22;22.10;99.90
56044;DHT22;41912;51.022;3.664;2023-08-12T09:29:47;22.20;99.90
56044;DHT22;41912;51.022;3.664;2023-08-12T09:32:18;22.20;99.90
56044;DHT22;41912;51.022;3.664;2023-08-12T09:34:54;22.20;99.90
56044;DHT22;41912;51.022;3.664;2023-08-12T09:37:22;22.30;99.90
56044;DHT22;41912;51.022;3.664;2023-08-12T09:39:50;22.20;99.90
56044;DHT22;41912;51.022;3.664;2023-08-12T09:42:17;22.30;99.90
56044;DHT22;41912;51.022;3.664;2023-08-12T09:44:43;22.30;99.90
56044;DHT22;41912;51.022;3.664;2023-08-12T09:47:10;22.30;99.90
56044;DHT22;41912;51.022;3.664;2023-08-12T09:49:36;22.40;99.90
56044;DHT22;41912;51.022;3.664;2023-08-12T09:52:07;22.30;99.90
56044;DHT22;41912;51.022;3.664;2023-08-12T09:54:33;22.40;99.90
56044;DHT22;41912;51.022;3.664;2023-08-12T09:57:01;22.40;99.90
56044;DHT22;41912;51.022;3.664;2023-08-12T09:59:31;22.50;99.90
56044;DHT22;41912;51.022;3.664;2023-08-12T10:02:04;22.50;99.90
56044;DHT22;41912;51.022;3.664;2023-08-12T10:04:39;22.60;99.90
56044;DHT22;41912;51.022;3.664;2023-08-12T10:07:11;22.70;99.90
56044;DHT22;41912;51.022;3.664;2023-08-12T10:09:39;22.80;99.90
56044;DHT22;41912;51.022;3.664;2023-08-12T10:12:06;22.90;99.90
56044;DHT22;41912;51.022;3.664;2023-08-12T10:14:33;22.90;99.90
56044;DHT22;41912;51.022;3.664;2023-08-12T10:16:59;22.90;99.90
56044;DHT22;41912;51.022;3.664;2023-08-12T10:19:26;23.00;99.90
56044;DHT22;41912;51.022;3.664;2023-08-12T10:21:55;22.90;99.90
56044;DHT22;41912;51.022;3.664;2023-08-12T10:24:23;22.90;99.90
56044;DHT22;41912;51.022;3.664;2023-08-12T10:26:51;22.80;99.90
56044;DHT22;41912;51.022;3.664;2023-08-12T10:29:17;22.80;99.90
56044;DHT22;41912;51.022;3.664;2023-08-12T10:31:42;23.00;99.90
56044;DHT22;41912;51.022;3.664;2023-08-12T10:34:18;23.10;99.90
56044;DHT22;41912;51.022;3.664;2023-08-12T10:36:44;23.10;99.90
56044;DHT22;41912;51.022;3.664;2023-08-12T10:39:10;23.10;99.90
56044;DHT22;41912;51.022;3.664;2023-08-12T10:41:35;23.20;99.90
56044;DHT22;41912;51.022;3.664;2023-08-12T10:44:05;23.20;99.90
56044;DHT22;41912;51.022;3.664;2023-08-12T10:46:35;23.20;99.90
56044;DHT22;41912;51.022;3.664;2023-08-12T10:49:08;23.30;99.90
56044;DHT22;41912;51.022;3.664;2023-08-12T10:51:49;23.40;99.90
56044;DHT22;41912;51.022;3.664;2023-08-12T10:54:20;23.40;99.90
56044;DHT22;41912;51.022;3.664;2023-08-12T10:57:13;23.50;99.90
56044;DHT22;41912;51.022;3.664;2023-08-12T11:02:20;23.70;99.90
56044;DHT22;41912;51.022;3.664;2023-08-12T11:04:59;23.70;99.90
56044;DHT22;41912;51.022;3.664;2023-08-12T11:07:40;23.80;99.90
56044;DHT22;41912;51.022;3.664;2023-08-12T11:12:39;23.90;99.90
56044;DHT22;41912;51.022;3.664;2023-08-12T11:15:06;24.00;99.90
56044;DHT22;41912;51.022;3.664;2023-08-12T11:17:42;24.00;99.90
56044;DHT22;41912;51.022;3.664;2023-08-12T11:20:09;24.00;99.90
56044;DHT22;41912;51.022;3.664;2023-08-12T11:22:38;24.10;99.90
56044;DHT22;41912;51.022;3.664;2023-08-12T11:25:09;24.20;99.90
56044;DHT22;41912;51.022;3.664;2023-08-12T11:27:46;24.30;99.90
56044;DHT22;41912;51.022;3.664;2023-08-12T11:30:14;24.20;99.90
56044;DHT22;41912;51.022;3.664;2023-08-12T11:32:45;24.20;99.90
56044;DHT22;41912;51.022;3.664;2023-08-12T11:35:12;24.20;99.90
56044;DHT22;41912;51.022;3.664;2023-08-12T11:37:40;24.30;99.90
56044;DHT22;41912;51.022;3.664;2023-08-12T11:40:07;24.40;99.90
56044;DHT22;41912;51.022;3.664;2023-08-12T11:42:40;24.40;99.90
56044;DHT22;41912;51.022;3.664;2023-08-12T11:45:07;24.40;99.90
56044;DHT22;41912;51.022;3.664;2023-08-12T11:47:34;24.30;99.90
56044;DHT22;41912;51.022;3.664;2023-08-12T11:50:02;24.30;99.90
56044;DHT22;41912;51.022;3.664;2023-08-12T11:52:29;24.40;99.90
56044;DHT22;41912;51.022;3.664;2023-08-12T11:54:55;24.50;99.90
56044;DHT22;41912;51.022;3.664;2023-08-12T11:57:22;24.60;99.90
56044;DHT22;41912;51.022;3.664;2023-08-12T11:59:51;24.60;99.90
56044;DHT22;41912;51.022;3.664;2023-08-12T12:02:17;24.60;99.90
56044;DHT22;41912;51.022;3.664;2023-08-12T12:04:43;24.60;99.70
56044;DHT22;41912;51.022;3.664;2023-08-12T12:07:38;24.60;98.60
56044;DHT22;41912;51.022;3.664;2023-08-12T12:10:05;24.60;98.60
56044;DHT22;41912;51.022;3.664;2023-08-12T12:12:36;24.70;98.70
56044;DHT22;41912;51.022;3.664;2023-08-12T12:15:02;24.90;98.50
56044;DHT22;41912;51.022;3.664;2023-08-12T12:17:29;25.00;99.00
56044;DHT22;41912;51.022;3.664;2023-08-12T12:19:56;25.20;99.00
56044;DHT22;41912;51.022;3.664;2023-08-12T12:22:32;25.40;98.70
56044;DHT22;41912;51.022;3.664;2023-08-12T12:24:59;25.40;97.90
56044;DHT22;41912;51.022;3.664;2023-08-12T12:27:25;25.40;98.20
56044;DHT22;41912;51.022;3.664;2023-08-12T12:29:52;25.40;98.30
56044;DHT22;41912;51.022;3.664;2023-08-12T12:32:21;25.30;97.10
56044;DHT22;41912;51.022;3.664;2023-08-12T12:34:47;25.30;96.00
56044;DHT22;41912;51.022;3.664;2023-08-12T12:37:13;25.40;95.50
56044;DHT22;41912;51.022;3.664;2023-08-12T12:39:39;25.50;95.50
56044;DHT22;41912;51.022;3.664;2023-08-12T12:42:05;25.70;95.50
56044;DHT22;41912;51.022;3.664;2023-08-12T12:44:31;25.80;95.80
56044;DHT22;41912;51.022;3.664;2023-08-12T12:46:57;25.90;96.40
56044;DHT22;41912;51.022;3.664;2023-08-12T12:49:22;26.00;96.30
56044;DHT22;41912;51.022;3.664;2023-08-12T12:51:48;26.10;96.60
56044;DHT22;41912;51.022;3.664;2023-08-12T12:54:14;26.10;95.70
56044;DHT22;41912;51.022;3.664;2023-08-12T12:56:40;26.10;95.00
56044;DHT22;41912;51.022;3.664;2023-08-12T12:59:06;26.00;94.00
56044;DHT22;41912;51.022;3.664;2023-08-12T13:01:31;25.90;93.20
56044;DHT22;41912;51.022;3.664;2023-08-12T13:03:57;25.90;93.00
56044;DHT22;41912;51.022;3.664;2023-08-12T13:06:23;26.00;93.40
56044;DHT22;41912;51.022;3.664;2023-08-12T13:08:48;26.10;93.70
56044;DHT22;41912;51.022;3.664;2023-08-12T13:11:15;26.10;92.20
56044;DHT22;41912;51.022;3.664;2023-08-12T13:13:41;26.20;92.30
56044;DHT22;41912;51.022;3.664;2023-08-12T13:16:07;26.20;91.50
56044;DHT22;41912;51.022;3.664;2023-08-12T13:18:34;26.20;91.60
56044;DHT22;41912;51.022;3.664;2023-08-12T13:20:59;26.30;92.10
56044;DHT22;41912;51.022;3.664;2023-08-12T13:23:25;26.40;92.40
56044;DHT22;41912;51.022;3.664;2023-08-12T13:25:50;26.40;91.50
56044;DHT22;41912;51.022;3.664;2023-08-12T13:28:16;26.40;91.20
56044;DHT22;41912;51.022;3.664;2023-08-12T13:30:42;26.40;90.90
56044;DHT22;41912;51.022;3.664;2023-08-12T13:33:07;26.50;91.30
56044;DHT22;41912;51.022;3.664;2023-08-12T13:35:33;26.40;92.10
56044;DHT22;41912;51.022;3.664;2023-08-12T13:37:59;26.40;90.70
56044;DHT22;41912;51.022;3.664;2023-08-12T13:40:25;26.30;90.80
56044;DHT22;41912;51.022;3.664;2023-08-12T13:42:50;26.30;90.00
56044;DHT22;41912;51.022;3.664;2023-08-12T13:45:16;26.20;89.40
56044;DHT22;41912;51.022;3.664;2023-08-12T13:47:42;26.10;90.20
56044;DHT22;41912;51.022;3.664;2023-08-12T13:50:07;26.20;91.00
56044;DHT22;41912;51.022;3.664;2023-08-12T13:52:33;26.20;91.70
56044;DHT22;41912;51.022;3.664;2023-08-12T13:54:59;26.20;90.80
56044;DHT22;41912;51.022;3.664;2023-08-12T13:57:24;26.20;91.30
56044;DHT22;41912;51.022;3.664;2023-08-12T13:59:50;26.30;91.10
56044;DHT22;41912;51.022;3.664;2023-08-12T14:02:16;26.40;90.10
56044;DHT22;41912;51.022;3.664;2023-08-12T14:04:41;26.60;90.40
56044;DHT22;41912;51.022;3.664;2023-08-12T14:07:08;26.70;90.50
56044;DHT22;41912;51.022;3.664;2023-08-12T14:09:34;26.80;90.00
56044;DHT22;41912;51.022;3.664;2023-08-12T14:12:00;26.90;89.20
56044;DHT22;41912;51.022;3.664;2023-08-12T14:14:26;27.00;90.70
56044;DHT22;41912;51.022;3.664;2023-08-12T14:16:54;27.00;90.50
56044;DHT22;41912;51.022;3.664;2023-08-12T14:19:20;27.10;88.50
56044;DHT22;41912;51.022;3.664;2023-08-12T14:21:46;27.10;88.90
56044;DHT22;41912;51.022;3.664;2023-08-12T14:24:12;27.00;88.60
56044;DHT22;41912;51.022;3.664;2023-08-12T14:26:39;26.90;87.10
56044;DHT22;41912;51.022;3.664;2023-08-12T14:29:05;26.90;87.20
56044;DHT22;41912;51.022;3.664;2023-08-12T14:31:31;27.00;85.90
56044;DHT22;41912;51.022;3.664;2023-08-12T14:33:56;27.10;86.00
56044;DHT22;41912;51.022;3.664;2023-08-12T14:36:22;27.10;85.40
56044;DHT22;41912;51.022;3.664;2023-08-12T14:38:49;27.10;85.00
56044;DHT22;41912;51.022;3.664;2023-08-12T14:41:15;27.10;85.60
56044;DHT22;41912;51.022;3.664;2023-08-12T14:43:40;27.20;86.70
56044;DHT22;41912;51.022;3.664;2023-08-12T14:46:06;27.30;88.80
56044;DHT22;41912;51.022;3.664;2023-08-12T14:48:32;27.40;85.40
56044;DHT22;41912;51.022;3.664;2023-08-12T14:50:57;27.40;85.40
56044;DHT22;41912;51.022;3.664;2023-08-12T14:53:24;27.30;84.90
56044;DHT22;41912;51.022;3.664;2023-08-12T14:55:50;27.30;86.70
56044;DHT22;41912;51.022;3.664;2023-08-12T14:58:16;27.30;84.20
56044;DHT22;41912;51.022;3.664;2023-08-12T15:00:42;27.40;86.60
56044;DHT22;41912;51.022;3.664;2023-08-12T15:03:07;27.40;86.60
56044;DHT22;41912;51.022;3.664;2023-08-12T15:05:33;27.40;83.30
56044;DHT22;41912;51.022;3.664;2023-08-12T15:07:59;27.50;83.10
56044;DHT22;41912;51.022;3.664;2023-08-12T15:10:24;27.60;86.00
56044;DHT22;41912;51.022;3.664;2023-08-12T15:12:50;27.60;86.40
56044;DHT22;41912;51.022;3.664;2023-08-12T15:15:16;27.60;86.80
56044;DHT22;41912;51.022;3.664;2023-08-12T15:17:41;27.60;83.80
56044;DHT22;41912;51.022;3.664;2023-08-12T15:20:07;27.50;83.30
56044;DHT22;41912;51.022;3.664;2023-08-12T15:22:35;27.40;84.40
56044;DHT22;41912;51.022;3.664;2023-08-12T15:25:01;27.30;81.20
56044;DHT22;41912;51.022;3.664;2023-08-12T15:27:27;27.20;81.40
56044;DHT22;41912;51.022;3.664;2023-08-12T15:29:53;27.20;83.20
56044;DHT22;41912;51.022;3.664;2023-08-12T15:32:19;27.20;84.70
56044;DHT22;41912;51.022;3.664;2023-08-12T15:34:44;27.20;83.30
56044;DHT22;41912;51.022;3.664;2023-08-12T15:37:10;27.10;83.70